Time;durP1;ratioP1;P1;durP2;ratioP2;P2;SDS_P1;SDS_P2;PMS_P1;PMS_P2;Temp;Humidity;BMP_temperature;BMP_pressure;BME280_temperature;BME280_humidity;BME280_pressure;Samples;Min_cycle;Max_cycle;Signal;HPM_P1;HPM_P2
2023/10/23 00:01:39;;;;;;;5.23;2.90;;;10.00;81.20;;;;;;5004245;28;20194;-65
2023/10/23 00:04:07;;;;;;;6.73;2.97;;;10.00;81.50;;;;;;4998494;28;20453;-66
2023/10/23 00:06:34;;;;;;;3.83;2.53;;;10.00;81.70;;;;;;5002569;28;20989;-67
2023/10/23 00:09:00;;;;;;;6.50;2.90;;;10.00;81.70;;;;;;5002113;28;20421;-67
2023/10/23 00:11:29;;;;;;;4.13;2.70;;;9.90;81.80;;;;;;5002624;28;20436;-66
2023/10/23 00:13:55;;;;;;;9.33;2.67;;;9.80;81.90;;;;;;5000700;28;20228;-67
2023/10/23 00:16:21;;;;;;;4.57;2.50;;;9.70;82.10;;;;;;5002002;28;20886;-68
2023/10/23 00:18:48;;;;;;;7.83;3.13;;;9.80;82.10;;;;;;5003056;28;20417;-67
2023/10/23 00:21:13;;;;;;;5.00;3.07;;;9.70;81.90;;;;;;5008122;28;20864;-68
2023/10/23 00:23:39;;;;;;;5.67;2.90;;;9.70;82.10;;;;;;5008295;28;20517;-66
2023/10/23 00:26:05;;;;;;;4.20;2.60;;;9.60;82.20;;;;;;5002832;28;20268;-68
2023/10/23 00:28:32;;;;;;;6.47;2.57;;;9.60;82.20;;;;;;4999854;28;20194;-67
2023/10/23 00:30:58;;;;;;;6.10;2.50;;;9.60;82.40;;;;;;5000015;28;20444;-68
2023/10/23 00:33:24;;;;;;;5.50;2.60;;;9.60;82.50;;;;;;5001183;28;20489;-66
2023/10/23 00:35:50;;;;;;;6.40;3.10;;;9.60;82.70;;;;;;5002000;28;20472;-67
2023/10/23 00:38:15;;;;;;;7.50;2.63;;;9.60;82.50;;;;;;5000826;28;20491;-66
2023/10/23 00:40:41;;;;;;;10.93;3.20;;;9.60;82.40;;;;;;4999137;28;20585;-67
2023/10/23 00:43:20;;;;;;;4.80;2.80;;;9.70;82.40;;;;;;5005838;28;20186;-67
2023/10/23 00:45:50;;;;;;;5.07;3.00;;;9.70;82.40;;;;;;5002498;28;20296;-67
2023/10/23 00:48:20;;;;;;;7.50;3.07;;;9.70;82.20;;;;;;5002417;28;20430;-66
2023/10/23 00:50:47;;;;;;;7.50;2.77;;;9.60;82.40;;;;;;4997010;28;20429;-66
2023/10/23 00:53:12;;;;;;;7.40;3.50;;;9.60;82.40;;;;;;5008218;28;20452;-67
2023/10/23 00:55:39;;;;;;;5.47;3.10;;;9.50;82.40;;;;;;5007089;28;20484;-65
2023/10/23 00:58:05;;;;;;;6.00;2.50;;;9.50;82.50;;;;;;5002288;28;20305;-66
2023/10/23 01:00:32;;;;;;;4.07;2.07;;;9.40;82.70;;;;;;4998212;28;20767;-65
2023/10/23 01:02:57;;;;;;;5.73;2.40;;;9.40;82.80;;;;;;5005771;28;20185;-67
2023/10/23 01:05:23;;;;;;;5.67;2.40;;;9.40;82.80;;;;;;4996569;28;20453;-66
2023/10/23 01:07:49;;;;;;;4.33;2.17;;;9.50;83.00;;;;;;5005473;28;20264;-65
2023/10/23 01:10:15;;;;;;;4.17;2.60;;;9.40;82.80;;;;;;5011724;28;20213;-65
2023/10/23 01:12:41;;;;;;;4.53;1.93;;;9.40;83.00;;;;;;5004875;28;20192;-65
2023/10/23 01:15:07;;;;;;;6.60;2.43;;;9.50;83.00;;;;;;5009514;28;20204;-64
2023/10/23 01:17:32;;;;;;;5.80;2.40;;;9.50;82.80;;;;;;5005988;28;21001;-66
2023/10/23 01:19:58;;;;;;;6.10;2.50;;;9.60;82.80;;;;;;5001257;28;20466;-68
2023/10/23 01:22:24;;;;;;;3.50;2.23;;;9.50;82.50;;;;;;5000052;28;20533;-67
2023/10/23 01:24:51;;;;;;;6.93;3.03;;;9.50;82.50;;;;;;5002378;28;20190;-66
2023/10/23 01:27:17;;;;;;;4.50;2.90;;;9.60;82.50;;;;;;4997688;28;20222;-66
2023/10/23 01:29:42;;;;;;;3.97;2.60;;;9.60;82.40;;;;;;5007481;28;20586;-66
2023/10/23 01:32:10;;;;;;;5.10;2.60;;;9.50;82.20;;;;;;4997456;28;20563;-65
2023/10/23 01:34:35;;;;;;;5.43;2.73;;;9.40;82.50;;;;;;4999124;28;20196;-66
2023/10/23 01:37:01;;;;;;;7.83;2.83;;;9.40;82.80;;;;;;4997794;28;20465;-65
2023/10/23 01:39:26;;;;;;;4.60;3.10;;;9.40;83.00;;;;;;5001829;28;20214;-64
2023/10/23 01:41:52;;;;;;;7.03;3.23;;;9.30;82.80;;;;;;4998998;28;20192;-67
2023/10/23 01:44:18;;;;;;;3.27;2.10;;;9.00;83.10;;;;;;5001615;28;20190;-67
2023/10/23 01:46:43;;;;;;;7.40;3.10;;;8.90;83.60;;;;;;5004861;28;20292;-63
2023/10/23 01:49:09;;;;;;;7.23;3.23;;;8.80;84.00;;;;;;4996854;28;20190;-66
2023/10/23 01:51:34;;;;;;;7.73;2.77;;;8.70;84.30;;;;;;5007548;28;20223;-65
2023/10/23 01:54:00;;;;;;;7.90;3.10;;;8.60;84.40;;;;;;5017182;28;20236;-66
2023/10/23 01:56:26;;;;;;;6.50;2.87;;;8.50;84.60;;;;;;4996386;28;20244;-67
2023/10/23 01:58:52;;;;;;;9.40;2.73;;;8.50;84.90;;;;;;5004447;28;20186;-67
2023/10/23 02:01:24;;;;;;;8.13;3.43;;;8.50;85.00;;;;;;5001221;28;20682;-67
2023/10/23 02:03:50;;;;;;;6.13;3.20;;;8.50;85.20;;;;;;5004349;28;20444;-66
2023/10/23 02:06:16;;;;;;;3.63;2.80;;;8.50;85.00;;;;;;5003308;28;20476;-68
2023/10/23 02:08:42;;;;;;;6.30;2.70;;;8.50;85.20;;;;;;5001224;28;20454;-66
2023/10/23 02:11:08;;;;;;;4.60;2.77;;;8.50;85.00;;;;;;4997836;28;20455;-66
2023/10/23 02:13:34;;;;;;;3.97;2.77;;;8.50;85.30;;;;;;4999984;28;20183;-66
2023/10/23 02:16:00;;;;;;;7.10;3.53;;;8.50;85.30;;;;;;4995702;28;21400;-65
2023/10/23 02:18:26;;;;;;;59.40;22.10;;;8.60;85.30;;;;;;4999417;28;20520;-68
2023/10/23 02:20:51;;;;;;;38.27;14.00;;;8.60;85.00;;;;;;5000948;28;20276;-67
2023/10/23 02:23:17;;;;;;;30.40;10.23;;;8.60;85.00;;;;;;5007796;28;20804;-66
2023/10/23 02:25:42;;;;;;;19.10;7.03;;;8.60;85.00;;;;;;5002151;28;20664;-68
2023/10/23 02:28:08;;;;;;;11.80;5.10;;;8.70;85.00;;;;;;5001323;28;20182;-66
2023/10/23 02:30:36;;;;;;;4.63;2.87;;;8.70;84.90;;;;;;5002885;28;20627;-66
2023/10/23 02:33:01;;;;;;;6.50;3.37;;;8.60;85.00;;;;;;5008166;28;20265;-67
2023/10/23 02:35:27;;;;;;;4.20;2.33;;;8.60;84.90;;;;;;5004996;28;22410;-65
2023/10/23 02:37:53;;;;;;;7.90;2.93;;;8.70;85.00;;;;;;5007142;28;20178;-68
2023/10/23 02:40:18;;;;;;;3.43;2.33;;;8.70;84.70;;;;;;5011797;28;20345;-67
2023/10/23 02:42:44;;;;;;;6.90;3.07;;;8.60;84.70;;;;;;5006250;28;20266;-66
2023/10/23 02:45:10;;;;;;;6.60;2.50;;;8.70;84.70;;;;;;5012473;28;20240;-66
2023/10/23 02:47:37;;;;;;;3.93;2.50;;;8.70;84.40;;;;;;5005972;28;20622;-65
2023/10/23 02:50:03;;;;;;;4.73;2.23;;;8.70;84.30;;;;;;5013012;28;20595;-65
2023/10/23 02:52:29;;;;;;;3.50;2.20;;;8.70;84.30;;;;;;5008405;28;20429;-65
2023/10/23 02:54:54;;;;;;;8.20;2.43;;;8.60;84.40;;;;;;5007500;28;20178;-66
2023/10/23 02:57:20;;;;;;;6.60;2.70;;;8.60;84.60;;;;;;4998867;28;20206;-67
2023/10/23 02:59:48;;;;;;;7.40;3.43;;;8.70;84.60;;;;;;5007313;28;20206;-64
2023/10/23 03:02:16;;;;;;;4.27;2.27;;;8.70;84.10;;;;;;4995864;28;20179;-67
2023/10/23 03:04:42;;;;;;;3.23;2.17;;;8.60;84.00;;;;;;5004977;28;20418;-65
2023/10/23 03:07:08;;;;;;;6.90;2.40;;;8.40;84.10;;;;;;5001391;28;20813;-66
2023/10/23 03:09:33;;;;;;;2.50;1.90;;;8.40;84.60;;;;;;5004826;28;20611;-67
2023/10/23 03:11:59;;;;;;;4.40;1.63;;;8.40;84.90;;;;;;5003279;28;20425;-66
2023/10/23 03:14:24;;;;;;;3.67;2.13;;;8.40;84.90;;;;;;5004688;28;20199;-66
2023/10/23 03:16:50;;;;;;;3.00;2.00;;;8.40;84.90;;;;;;5001884;28;20209;-65
2023/10/23 03:19:15;;;;;;;8.97;2.50;;;8.40;84.90;;;;;;5004448;28;20210;-67
2023/10/23 03:21:41;;;;;;;4.97;2.27;;;8.30;84.90;;;;;;5006289;28;20182;-68
2023/10/23 03:24:07;;;;;;;4.77;2.63;;;8.20;85.00;;;;;;5007149;28;20190;-65
2023/10/23 03:26:33;;;;;;;5.80;2.70;;;8.40;85.20;;;;;;5006884;28;20265;-66
2023/10/23 03:28:58;;;;;;;7.37;3.60;;;8.40;84.90;;;;;;5010172;28;20417;-70
2023/10/23 03:31:24;;;;;;;4.57;2.47;;;8.40;84.90;;;;;;5011943;28;20277;-64
2023/10/23 03:33:49;;;;;;;4.30;3.50;;;8.30;84.90;;;;;;5006993;28;20224;-66
2023/10/23 03:36:16;;;;;;;4.03;2.20;;;8.30;84.90;;;;;;5008637;28;20216;-66
2023/10/23 03:38:41;;;;;;;7.57;2.17;;;8.30;84.90;;;;;;5001842;28;20270;-67
2023/10/23 03:41:07;;;;;;;4.67;2.23;;;8.20;85.00;;;;;;5004498;28;20551;-67
2023/10/23 03:43:33;;;;;;;4.07;2.60;;;8.20;85.00;;;;;;5001306;28;20551;-67
2023/10/23 03:46:02;;;;;;;4.50;2.70;;;8.20;85.20;;;;;;5007607;28;20206;-69
2023/10/23 03:48:28;;;;;;;5.40;3.03;;;8.20;85.30;;;;;;4996961;28;20324;-64
2023/10/23 03:50:54;;;;;;;6.23;2.87;;;8.30;85.20;;;;;;5000287;28;20507;-64
2023/10/23 03:53:20;;;;;;;6.87;3.10;;;8.30;84.90;;;;;;4994177;28;20430;-67
2023/10/23 03:55:45;;;;;;;8.50;3.03;;;8.30;84.70;;;;;;5006098;28;20206;-66
2023/10/23 03:58:11;;;;;;;5.10;2.80;;;8.30;84.70;;;;;;4996545;28;20187;-67
2023/10/23 04:00:36;;;;;;;4.50;2.50;;;8.30;84.60;;;;;;5003049;28;20962;-65
2023/10/23 04:03:02;;;;;;;4.93;2.63;;;8.20;84.70;;;;;;5004560;28;20237;-66
2023/10/23 04:05:28;;;;;;;7.80;2.90;;;8.20;84.90;;;;;;4999588;28;20864;-65
2023/10/23 04:07:53;;;;;;;3.07;2.40;;;8.10;85.00;;;;;;5008580;28;20939;-67
2023/10/23 04:10:19;;;;;;;4.80;2.90;;;8.10;85.00;;;;;;5021141;28;20197;-67
2023/10/23 04:12:45;;;;;;;3.50;2.47;;;8.10;85.20;;;;;;5000980;28;20222;-66
2023/10/23 04:15:10;;;;;;;10.37;3.50;;;8.10;85.30;;;;;;5001238;28;20723;-66
2023/10/23 04:17:36;;;;;;;7.63;3.30;;;8.10;85.30;;;;;;5000965;28;20654;-67
2023/10/23 04:20:02;;;;;;;9.97;3.47;;;8.20;85.30;;;;;;5004322;28;20218;-67
2023/10/23 04:22:28;;;;;;;8.10;3.97;;;8.20;85.00;;;;;;5008133;28;20205;-66
2023/10/23 04:24:54;;;;;;;6.53;3.93;;;8.10;84.70;;;;;;5004145;28;20429;-65
2023/10/23 04:27:20;;;;;;;7.60;3.40;;;8.00;84.70;;;;;;4999799;28;20225;-68
2023/10/23 04:29:46;;;;;;;5.40;3.10;;;8.00;84.90;;;;;;5010735;28;20449;-65
2023/10/23 04:32:12;;;;;;;6.43;3.30;;;7.90;84.90;;;;;;5002745;28;20778;-66
2023/10/23 04:34:37;;;;;;;7.20;2.90;;;7.90;85.20;;;;;;4999375;28;20191;-67
2023/10/23 04:37:03;;;;;;;6.93;3.10;;;7.80;85.30;;;;;;4998502;28;20686;-67
2023/10/23 04:39:28;;;;;;;5.67;2.90;;;7.80;85.70;;;;;;4997909;28;20206;-64
2023/10/23 04:41:54;;;;;;;5.83;2.70;;;7.70;85.90;;;;;;5001822;28;20669;-66
2023/10/23 04:44:20;;;;;;;8.10;3.23;;;7.70;86.00;;;;;;4998024;28;20193;-66
2023/10/23 04:46:46;;;;;;;8.03;3.87;;;7.70;86.20;;;;;;5000856;28;20627;-68
2023/10/23 04:49:11;;;;;;;5.53;3.50;;;7.80;86.30;;;;;;5002111;28;20186;-67
2023/10/23 04:51:37;;;;;;;8.10;3.30;;;7.80;86.30;;;;;;4999775;28;20945;-67
2023/10/23 04:54:03;;;;;;;5.47;3.00;;;7.90;86.30;;;;;;4996883;28;20187;-65
2023/10/23 04:56:29;;;;;;;8.57;3.03;;;7.90;86.20;;;;;;4999932;28;20285;-67
2023/10/23 04:58:55;;;;;;;4.40;3.00;;;7.90;85.90;;;;;;4997577;28;20175;-65
2023/10/23 05:01:22;;;;;;;5.30;3.00;;;7.80;85.90;;;;;;5005936;28;20430;-68
2023/10/23 05:03:48;;;;;;;15.97;4.03;;;7.70;85.90;;;;;;4997753;28;20511;-66
2023/10/23 05:06:13;;;;;;;7.00;3.13;;;7.80;86.20;;;;;;5004071;28;20547;-67
2023/10/23 05:08:39;;;;;;;11.13;3.73;;;7.70;85.90;;;;;;4998968;28;20209;-65
2023/10/23 05:11:08;;;;;;;5.90;3.17;;;7.70;86.00;;;;;;5003982;28;20666;-67
2023/10/23 05:13:34;;;;;;;7.73;3.37;;;7.70;86.00;;;;;;4998328;28;20191;-66
2023/10/23 05:16:04;;;;;;;5.90;3.30;;;7.70;86.20;;;;;;5003806;28;20850;-67
2023/10/23 05:18:34;;;;;;;5.70;2.90;;;7.70;86.30;;;;;;4998562;28;20290;-63
2023/10/23 05:21:06;;;;;;;9.87;4.00;;;7.70;86.30;;;;;;5005543;28;20468;-65
2023/10/23 05:23:31;;;;;;;8.50;4.50;;;7.70;86.30;;;;;;5007434;28;20428;-65
2023/10/23 05:25:57;;;;;;;6.10;4.03;;;7.60;86.30;;;;;;5007894;28;20479;-65
2023/10/23 05:28:22;;;;;;;8.67;4.30;;;7.80;86.50;;;;;;5004193;28;20559;-65
2023/10/23 05:30:51;;;;;;;7.27;4.40;;;7.70;86.20;;;;;;5004836;28;20268;-66
2023/10/23 05:33:17;;;;;;;6.90;4.10;;;7.70;86.20;;;;;;4998106;28;20194;-66
2023/10/23 05:35:43;;;;;;;9.80;5.13;;;7.70;86.00;;;;;;4998371;28;20817;-66
2023/10/23 05:38:09;;;;;;;8.13;4.20;;;7.70;86.00;;;;;;5003029;28;20433;-66
2023/10/23 05:40:37;;;;;;;9.53;4.60;;;7.70;85.90;;;;;;5004996;28;20221;-65
2023/10/23 05:43:03;;;;;;;7.27;4.50;;;7.70;85.70;;;;;;5011237;28;20451;-66
2023/10/23 05:45:28;;;;;;;12.53;4.40;;;7.60;85.30;;;;;;4998074;28;20472;-66
2023/10/23 05:47:54;;;;;;;12.43;5.13;;;7.50;85.50;;;;;;5002617;28;20182;-67
2023/10/23 05:50:20;;;;;;;8.43;5.00;;;7.40;85.50;;;;;;4996300;28;20730;-65
2023/10/23 05:52:45;;;;;;;8.50;4.80;;;7.30;85.70;;;;;;5003784;28;20225;-64
2023/10/23 05:55:11;;;;;;;10.40;5.30;;;7.40;86.20;;;;;;4998113;28;20186;-65
2023/10/23 05:57:36;;;;;;;13.57;5.07;;;7.50;86.30;;;;;;5004301;28;20594;-66
2023/10/23 06:00:03;;;;;;;9.27;4.90;;;7.40;86.20;;;;;;5002782;28;20257;-67
2023/10/23 06:02:30;;;;;;;5.73;4.57;;;7.40;86.30;;;;;;5000674;28;20543;-66
2023/10/23 06:04:56;;;;;;;12.37;5.17;;;7.40;86.60;;;;;;5004524;28;20456;-65
2023/10/23 06:07:21;;;;;;;12.07;4.90;;;7.40;86.60;;;;;;5004890;28;20449;-67
2023/10/23 06:09:47;;;;;;;8.30;4.30;;;7.40;86.60;;;;;;5006833;28;20429;-67
2023/10/23 06:12:14;;;;;;;9.53;4.53;;;7.40;86.60;;;;;;5007583;28;20213;-68
2023/10/23 06:14:40;;;;;;;13.00;5.50;;;7.50;86.80;;;;;;4999628;28;20197;-68
2023/10/23 06:17:06;;;;;;;9.03;4.80;;;7.60;86.90;;;;;;5003240;28;20536;-64
2023/10/23 06:19:32;;;;;;;5.60;4.40;;;7.70;86.50;;;;;;4996774;28;20261;-66
2023/10/23 06:21:57;;;;;;;8.70;5.00;;;7.70;86.20;;;;;;5005165;28;20185;-68
2023/10/23 06:24:23;;;;;;;8.37;4.37;;;7.70;86.00;;;;;;5005359;28;20650;-66
2023/10/23 06:26:49;;;;;;;17.80;5.43;;;7.60;86.00;;;;;;5007011;28;20234;-66
2023/10/23 06:29:14;;;;;;;10.13;5.63;;;7.70;86.20;;;;;;5009072;28;20188;-66
2023/10/23 06:31:40;;;;;;;10.83;6.10;;;7.70;86.20;;;;;;5005110;28;20190;-67
2023/10/23 06:34:05;;;;;;;9.47;5.10;;;7.70;86.20;;;;;;5003606;28;20218;-67
2023/10/23 06:36:31;;;;;;;9.93;4.70;;;7.70;86.20;;;;;;5004225;28;20583;-66
2023/10/23 06:38:57;;;;;;;14.30;6.10;;;7.80;85.70;;;;;;5009989;28;20197;-65
2023/10/23 06:41:23;;;;;;;20.07;5.60;;;7.80;85.50;;;;;;5005046;28;20458;-65
2023/10/23 06:43:48;;;;;;;8.10;6.10;;;7.70;85.50;;;;;;5002883;28;20347;-67
2023/10/23 06:46:14;;;;;;;10.73;5.47;;;7.80;85.50;;;;;;5006362;28;20202;-66
2023/10/23 06:48:46;;;;;;;8.30;5.00;;;7.70;85.30;;;;;;4999754;28;20193;-67
2023/10/23 06:51:13;;;;;;;13.33;6.13;;;7.70;85.30;;;;;;5003561;28;20450;-66
2023/10/23 06:53:42;;;;;;;9.57;6.10;;;7.70;85.50;;;;;;5009457;28;20434;-67
2023/10/23 06:56:08;;;;;;;12.33;6.17;;;7.70;85.60;;;;;;5001985;28;20464;-66
2023/10/23 06:58:34;;;;;;;11.60;6.10;;;7.60;85.60;;;;;;5006787;28;20483;-65
2023/10/23 07:01:09;;;;;;;12.93;5.80;;;7.60;85.70;;;;;;5006913;28;20465;-65
2023/10/23 07:03:36;;;;;;;12.50;6.07;;;7.70;85.90;;;;;;5007846;28;20831;-66
2023/10/23 07:06:08;;;;;;;10.60;7.00;;;7.80;85.90;;;;;;5005987;28;20472;-67
2023/10/23 07:08:34;;;;;;;11.73;5.60;;;7.90;85.90;;;;;;5004718;28;20434;-67
2023/10/23 07:11:00;;;;;;;13.27;6.37;;;8.00;85.60;;;;;;5004653;28;20424;-66
2023/10/23 07:13:25;;;;;;;11.33;6.07;;;8.10;85.50;;;;;;5004966;28;20427;-65
2023/10/23 07:15:51;;;;;;;11.30;7.10;;;8.20;85.30;;;;;;4999068;28;20336;-67
2023/10/23 07:18:17;;;;;;;10.87;6.50;;;8.30;85.20;;;;;;5001469;28;20198;-68
2023/10/23 07:20:57;;;;;;;15.47;6.30;;;8.30;85.20;;;;;;5011083;28;20300;-67
2023/10/23 07:23:23;;;;;;;17.43;7.80;;;8.50;84.90;;;;;;5002952;28;20442;-66
2023/10/23 07:25:59;;;;;;;11.33;8.20;;;8.50;84.30;;;;;;5002707;28;20575;-66
2023/10/23 07:28:25;;;;;;;17.73;6.63;;;8.50;83.80;;;;;;5001003;28;20430;-66
2023/10/23 07:30:50;;;;;;;11.97;6.20;;;8.50;83.80;;;;;;5004165;28;20425;-66
2023/10/23 07:33:16;;;;;;;8.27;6.03;;;8.60;84.00;;;;;;5002239;28;20194;-65
2023/10/23 07:35:42;;;;;;;10.30;6.70;;;8.70;83.80;;;;;;5003691;28;20351;-65
2023/10/23 07:38:07;;;;;;;9.63;6.07;;;8.80;83.70;;;;;;5002640;28;20182;-67
2023/10/23 07:40:33;;;;;;;10.00;6.17;;;8.80;83.40;;;;;;5006730;28;20555;-67
2023/10/23 07:42:58;;;;;;;9.07;6.27;;;8.80;83.40;;;;;;5003827;28;20214;-66
2023/10/23 07:45:24;;;;;;;12.90;7.90;;;8.90;83.30;;;;;;5007790;28;20206;-67
2023/10/23 07:47:50;;;;;;;9.33;5.90;;;8.90;83.30;;;;;;5003702;28;20995;-68
2023/10/23 07:50:16;;;;;;;13.37;6.60;;;9.00;83.10;;;;;;5002813;28;20202;-65
2023/10/23 07:52:42;;;;;;;13.83;6.13;;;9.10;83.00;;;;;;5005029;28;20438;-68
2023/10/23 07:55:08;;;;;;;13.43;6.17;;;9.20;82.80;;;;;;5007215;28;20428;-65
2023/10/23 07:57:33;;;;;;;13.10;7.00;;;9.10;82.40;;;;;;4998703;28;20187;-66
2023/10/23 07:59:59;;;;;;;11.80;6.00;;;9.10;82.70;;;;;;5005346;28;20457;-66
2023/10/23 08:02:24;;;;;;;13.10;7.00;;;9.10;82.80;;;;;;4996396;28;20178;-66
2023/10/23 08:04:50;;;;;;;12.37;6.87;;;9.20;82.50;;;;;;5004995;28;20275;-68
2023/10/23 08:07:16;;;;;;;10.90;6.90;;;9.20;82.70;;;;;;4998458;28;20578;-66
2023/10/23 08:09:42;;;;;;;12.47;6.70;;;9.30;82.80;;;;;;5004037;28;20269;-67
2023/10/23 08:12:09;;;;;;;10.60;7.00;;;9.40;82.80;;;;;;5007032;28;20868;-67
2023/10/23 08:14:35;;;;;;;9.53;6.30;;;9.60;82.80;;;;;;5008079;28;20440;-66
2023/10/23 08:17:00;;;;;;;11.57;6.20;;;9.90;82.20;;;;;;5000080;28;20464;-62
2023/10/23 08:19:26;;;;;;;11.20;7.13;;;10.00;80.60;;;;;;5002262;28;20696;-66
2023/10/23 08:21:52;;;;;;;14.17;7.73;;;10.00;80.20;;;;;;5005278;28;20182;-65
2023/10/23 08:24:17;;;;;;;13.77;6.77;;;10.00;80.30;;;;;;5001192;28;20241;-68
2023/10/23 08:26:43;;;;;;;11.00;6.40;;;10.10;80.50;;;;;;5004142;28;20893;-65
2023/10/23 08:29:09;;;;;;;12.27;6.60;;;10.20;79.90;;;;;;5001879;28;20255;-68
2023/10/23 08:31:34;;;;;;;24.27;6.90;;;10.20;79.90;;;;;;5003661;28;20253;-67
2023/10/23 08:34:00;;;;;;;11.90;7.00;;;10.30;79.70;;;;;;5005147;28;20186;-66
2023/10/23 08:36:25;;;;;;;17.27;6.50;;;10.30;79.20;;;;;;5007695;28;20211;-67
2023/10/23 08:38:51;;;;;;;13.87;6.30;;;10.20;79.30;;;;;;5010643;28;20185;-68
2023/10/23 08:41:17;;;;;;;11.20;7.10;;;10.30;79.70;;;;;;5003615;28;20237;-66
2023/10/23 08:43:42;;;;;;;8.50;6.00;;;10.30;79.60;;;;;;5010881;28;20185;-66
2023/10/23 08:46:08;;;;;;;18.87;6.70;;;10.40;79.30;;;;;;5004668;28;20300;-67
2023/10/23 08:48:36;;;;;;;12.03;6.60;;;10.40;79.50;;;;;;5000180;28;20949;-67
2023/10/23 08:51:02;;;;;;;14.70;8.00;;;10.50;79.60;;;;;;5009139;28;20432;-66
2023/10/23 08:53:43;;;;;;;12.80;6.87;;;10.60;79.20;;;;;;4997181;28;20422;-66
2023/10/23 08:56:09;;;;;;;12.20;6.10;;;10.60;79.30;;;;;;5006595;28;20542;-67
2023/10/23 08:58:37;;;;;;;9.83;7.07;;;10.70;79.70;;;;;;4996860;28;21137;-67
2023/10/23 09:01:03;;;;;;;13.13;6.53;;;10.80;79.30;;;;;;5004899;28;21011;-66
2023/10/23 09:03:31;;;;;;;10.83;5.90;;;11.00;78.40;;;;;;5005203;28;20429;-66
2023/10/23 09:05:59;;;;;;;10.83;6.07;;;11.00;78.30;;;;;;5003960;28;20499;-67
2023/10/23 09:08:30;;;;;;;9.70;5.60;;;11.00;78.40;;;;;;5003375;28;20443;-66
2023/10/23 09:11:00;;;;;;;8.77;6.70;;;11.00;78.40;;;;;;5001363;28;20425;-67
2023/10/23 09:13:37;;;;;;;9.43;5.77;;;11.00;78.60;;;;;;5000428;28;20416;-68
2023/10/23 09:16:07;;;;;;;13.07;5.60;;;11.10;79.20;;;;;;4996162;28;20457;-66
2023/10/23 09:18:33;;;;;;;11.87;6.00;;;11.20;79.20;;;;;;5002215;28;20417;-67
2023/10/23 09:20:59;;;;;;;17.17;7.40;;;11.40;78.60;;;;;;5000757;28;21036;-68
2023/10/23 09:23:25;;;;;;;16.53;7.90;;;11.60;77.40;;;;;;5003291;28;20446;-66
2023/10/23 09:25:57;;;;;;;15.90;7.53;;;11.60;76.50;;;;;;4998696;28;20460;-65
2023/10/23 09:28:23;;;;;;;19.27;8.40;;;11.60;75.80;;;;;;5003129;28;20418;-67
2023/10/23 09:30:48;;;;;;;17.53;8.63;;;11.60;76.20;;;;;;5007870;28;21749;-65
2023/10/23 09:33:14;;;;;;;16.80;8.00;;;11.50;76.50;;;;;;5001351;28;20356;-67
2023/10/23 09:35:40;;;;;;;19.23;8.77;;;11.60;76.20;;;;;;4998774;28;20213;-65
2023/10/23 09:38:16;;;;;;;17.20;8.47;;;11.60;76.20;;;;;;5003563;28;20224;-65
2023/10/23 09:40:44;;;;;;;18.77;8.43;;;11.50;75.90;;;;;;4995620;28;20479;-66
2023/10/23 09:43:11;;;;;;;16.03;8.87;;;11.50;76.40;;;;;;5005404;28;20417;-67
2023/10/23 09:45:37;;;;;;;17.70;8.30;;;11.40;76.40;;;;;;5006253;28;20539;-66
2023/10/23 09:48:04;;;;;;;18.20;7.90;;;11.40;76.80;;;;;;5004805;28;20456;-66
2023/10/23 09:50:31;;;;;;;19.47;9.20;;;11.40;77.00;;;;;;5002946;28;20471;-65
2023/10/23 09:52:57;;;;;;;17.27;8.90;;;11.40;76.70;;;;;;5004747;28;20441;-67
2023/10/23 09:55:30;;;;;;;22.20;8.57;;;11.40;77.10;;;;;;5001712;28;20458;-67
2023/10/23 09:57:59;;;;;;;25.80;9.53;;;11.60;77.00;;;;;;5000599;28;20451;-67
2023/10/23 10:00:27;;;;;;;17.40;8.47;;;11.60;76.50;;;;;;5002562;28;20518;-67
2023/10/23 10:02:54;;;;;;;17.73;8.70;;;11.70;76.20;;;;;;5004031;28;20413;-67
2023/10/23 10:05:32;;;;;;;17.90;7.80;;;11.70;76.20;;;;;;5005139;28;20515;-68
2023/10/23 10:08:08;;;;;;;15.43;8.87;;;11.80;76.10;;;;;;5004240;28;21154;-67
2023/10/23 10:10:36;;;;;;;19.90;8.80;;;11.70;75.80;;;;;;5006815;28;20425;-66
2023/10/23 10:13:03;;;;;;;19.77;8.90;;;11.80;75.80;;;;;;5003613;28;20433;-67
2023/10/23 10:15:29;;;;;;;18.37;8.03;;;11.90;75.70;;;;;;5010684;28;20499;-66
2023/10/23 10:17:55;;;;;;;19.63;8.40;;;12.00;75.50;;;;;;5007937;28;20929;-67
2023/10/23 10:20:22;;;;;;;11.80;7.77;;;12.20;75.40;;;;;;5009822;28;20560;-66
2023/10/23 10:23:01;;;;;;;14.13;7.43;;;12.30;74.80;;;;;;5001830;28;20185;-69
2023/10/23 10:25:27;;;;;;;13.83;7.30;;;12.40;74.30;;;;;;5004969;28;20468;-66
2023/10/23 10:27:57;;;;;;;20.43;9.20;;;12.40;73.70;;;;;;5002791;28;20948;-66
2023/10/23 10:30:46;;;;;;;14.10;7.50;;;12.40;74.00;;;;;;5004886;28;20919;-66
2023/10/23 10:33:16;;;;;;;13.20;7.30;;;12.50;74.00;;;;;;5009915;28;20421;-67
2023/10/23 10:35:49;;;;;;;15.33;7.60;;;12.60;73.70;;;;;;5005458;28;20467;-67
2023/10/23 10:38:22;;;;;;;15.07;6.67;;;12.70;73.30;;;;;;5009348;28;20436;-66
2023/10/23 10:40:56;;;;;;;15.50;7.73;;;12.60;73.20;;;;;;5001824;28;20488;-65
2023/10/23 10:43:29;;;;;;;15.23;7.40;;;12.50;73.90;;;;;;5009532;28;20445;-66
2023/10/23 10:45:55;;;;;;;15.33;7.80;;;12.50;74.20;;;;;;4997954;28;20473;-65
2023/10/23 10:48:39;;;;;;;19.33;7.83;;;12.40;74.30;;;;;;5006490;28;20474;-66
2023/10/23 10:51:05;;;;;;;15.90;8.77;;;12.40;74.50;;;;;;5004392;28;20969;-68
2023/10/23 10:53:31;;;;;;;16.60;9.80;;;12.40;74.90;;;;;;5002683;28;20580;-67
2023/10/23 10:55:57;;;;;;;20.50;9.77;;;12.40;74.60;;;;;;5004994;28;20503;-67
2023/10/23 10:58:24;;;;;;;18.50;8.37;;;12.40;74.90;;;;;;5001220;28;20550;-68
2023/10/23 11:00:50;;;;;;;18.27;9.33;;;12.50;74.90;;;;;;5001943;28;21459;-65
2023/10/23 11:03:17;;;;;;;20.57;9.10;;;12.70;73.60;;;;;;5005813;28;20518;-65
2023/10/23 11:05:46;;;;;;;14.63;7.83;;;12.70;73.90;;;;;;5005284;28;20457;-67
2023/10/23 11:08:12;;;;;;;15.17;8.57;;;12.80;73.60;;;;;;5004675;28;20481;-67
2023/10/23 11:10:38;;;;;;;16.00;8.13;;;12.70;73.50;;;;;;5007235;28;20430;-66
2023/10/23 11:13:05;;;;;;;15.80;8.17;;;12.80;73.50;;;;;;5005114;28;20263;-67
2023/10/23 11:15:30;;;;;;;15.07;8.40;;;12.80;73.50;;;;;;5003671;28;20233;-66
2023/10/23 11:17:56;;;;;;;13.73;8.80;;;12.90;73.20;;;;;;5011196;28;20417;-65
2023/10/23 11:20:30;;;;;;;14.43;8.00;;;13.00;73.00;;;;;;5003615;28;20252;-66
2023/10/23 11:22:56;;;;;;;15.57;8.63;;;13.00;72.70;;;;;;4998051;28;20461;-66
2023/10/23 11:25:21;;;;;;;19.20;8.80;;;13.00;72.60;;;;;;5003122;28;20472;-68
2023/10/23 11:27:51;;;;;;;17.33;7.87;;;13.10;72.70;;;;;;4997898;28;20191;-66
2023/10/23 11:30:17;;;;;;;16.77;8.13;;;13.20;72.30;;;;;;5003210;28;20573;-66
2023/10/23 11:32:44;;;;;;;13.77;8.23;;;13.20;72.10;;;;;;5008610;28;20433;-66
2023/10/23 11:35:10;;;;;;;19.17;8.43;;;13.30;72.30;;;;;;5003487;28;20201;-65
2023/10/23 11:37:41;;;;;;;15.27;7.10;;;13.40;71.80;;;;;;5001303;28;20433;-65
2023/10/23 11:40:08;;;;;;;15.80;7.63;;;13.40;71.80;;;;;;5004233;28;20465;-68
2023/10/23 11:42:55;;;;;;;23.90;7.77;;;13.50;71.30;;;;;;4997935;28;20459;-66
2023/10/23 11:45:21;;;;;;;13.50;7.80;;;13.40;71.40;;;;;;5001709;28;20442;-67
2023/10/23 11:47:51;;;;;;;16.60;8.17;;;13.40;72.00;;;;;;5012612;28;20418;-67
2023/10/23 11:50:17;;;;;;;16.90;7.97;;;13.50;72.00;;;;;;4999448;28;20438;-68
2023/10/23 11:52:45;;;;;;;21.20;8.57;;;13.60;71.80;;;;;;5004701;28;20441;-66
2023/10/23 11:55:12;;;;;;;12.50;7.07;;;13.70;71.60;;;;;;5000787;28;20428;-65
2023/10/23 11:57:42;;;;;;;12.20;7.20;;;13.80;71.40;;;;;;5003176;28;20787;-66
2023/10/23 12:00:12;;;;;;;15.10;7.90;;;13.80;70.70;;;;;;5002465;28;20477;-66
2023/10/23 12:02:40;;;;;;;19.00;8.20;;;13.60;71.30;;;;;;5007330;28;20427;-64
2023/10/23 12:05:07;;;;;;;13.63;8.60;;;13.60;70.80;;;;;;5000853;28;20434;-65
2023/10/23 12:07:33;;;;;;;16.93;8.03;;;13.40;71.00;;;;;;5005225;28;20454;-66
2023/10/23 12:09:59;;;;;;;12.17;7.43;;;13.20;71.80;;;;;;4996609;28;20528;-67
2023/10/23 12:12:25;;;;;;;18.40;8.17;;;13.20;72.10;;;;;;5003037;28;20991;-67
2023/10/23 12:14:50;;;;;;;19.17;8.10;;;13.20;72.10;;;;;;4995651;28;20191;-65
2023/10/23 12:17:16;;;;;;;21.93;8.10;;;13.20;72.10;;;;;;5002225;28;20541;-67
2023/10/23 12:19:42;;;;;;;16.33;8.67;;;13.10;72.90;;;;;;4997303;28;20703;-68
2023/10/23 12:22:07;;;;;;;19.03;7.80;;;13.00;72.90;;;;;;5004110;28;20198;-68
2023/10/23 12:24:33;;;;;;;12.83;6.53;;;12.80;73.60;;;;;;4997428;28;20532;-65
2023/10/23 12:26:59;;;;;;;16.93;8.20;;;12.90;74.00;;;;;;5003405;28;20645;-65
2023/10/23 12:29:24;;;;;;;20.77;7.80;;;13.00;74.30;;;;;;4996999;28;20733;-65
2023/10/23 12:31:50;;;;;;;13.40;6.90;;;13.20;74.30;;;;;;5005802;28;20187;-65
2023/10/23 12:34:15;;;;;;;10.83;6.00;;;13.30;73.70;;;;;;5003843;28;20217;-66
2023/10/23 12:36:41;;;;;;;18.80;7.67;;;13.50;72.60;;;;;;5006068;28;20205;-66
2023/10/23 12:39:07;;;;;;;19.67;7.03;;;13.60;72.70;;;;;;5002747;28;20182;-65
2023/10/23 12:41:32;;;;;;;12.43;6.77;;;13.70;72.70;;;;;;5005560;28;20225;-67
2023/10/23 12:43:58;;;;;;;39.43;8.47;;;13.80;72.30;;;;;;5002343;28;20212;-67
2023/10/23 12:46:23;;;;;;;12.57;6.40;;;14.00;72.00;;;;;;5007136;28;20213;-67